Time;durP1;ratioP1;P1;durP2;ratioP2;P2;SDS_P1;SDS_P2;PMS_P1;PMS_P2;Temp;Humidity;BMP_temperature;BMP_pressure;BME280_temperature;BME280_humidity;BME280_pressure;Samples;Min_cycle;Max_cycle;Signal;HPM_P1;HPM_P2
2023/09/05 00:00:19;;;;;;;;;7.75;6.25;;;;;27.74;36.57;101004.69;5081112;27;46240;-68
2023/09/05 00:02:48;;;;;;;;;7.75;6.50;;;;;27.77;36.45;101013.53;5081413;27;45364;-68
2023/09/05 00:05:13;;;;;;;;;7.00;7.00;;;;;27.71;36.29;101004.09;5081282;27;45264;-68
2023/09/05 00:07:40;;;;;;;;;6.25;6.25;;;;;27.74;36.01;101009.25;5081243;27;45328;-68
2023/09/05 00:10:08;;;;;;;;;7.25;5.25;;;;;27.72;36.52;101012.09;5080900;27;46231;-68
2023/09/05 00:12:34;;;;;;;;;1.75;1.75;;;;;27.70;36.07;101016.75;5081139;27;45246;-68
2023/09/05 00:15:01;;;;;;;;;5.50;5.50;;;;;27.68;36.08;101017.84;5080944;27;45416;-68
2023/09/05 00:17:26;;;;;;;;;6.25;6.00;;;;;27.68;36.13;101017.84;5081078;27;45413;-68
2023/09/05 00:19:52;;;;;;;;;7.00;6.25;;;;;27.62;36.13;101013.81;5080804;27;45255;-68
2023/09/05 00:22:20;;;;;;;;;7.00;6.25;;;;;27.62;36.69;101018.34;5079796;28;45223;-68
2023/09/05 00:24:45;;;;;;;;;5.25;5.00;;;;;27.57;36.47;101016.91;5079596;28;45496;-68
2023/09/05 00:27:12;;;;;;;;;5.00;5.00;;;;;27.55;36.50;101016.16;5080483;28;45607;-68
2023/09/05 00:29:39;;;;;;;;;7.75;6.00;;;;;27.55;36.46;101013.47;5113392;27;46452;-68
2023/09/05 00:32:05;;;;;;;;;6.25;6.25;;;;;27.53;35.97;101012.75;5080181;28;45409;-68
2023/09/05 00:34:36;;;;;;;;;7.75;7.75;;;;;27.51;36.30;101014.72;5080871;28;45288;-68
2023/09/05 00:37:03;;;;;;;;;5.00;5.00;;;;;27.45;36.58;101004.41;5080792;27;45573;-68
2023/09/05 00:39:28;;;;;;;;;6.25;6.25;;;;;27.49;36.64;101015.81;5080489;28;46195;-68
2023/09/05 00:41:56;;;;;;;;;8.25;5.00;;;;;27.44;36.73;101012.63;5080505;27;45322;-68
2023/09/05 00:44:25;;;;;;;;;6.75;5.50;;;;;27.40;36.47;100996.69;5079393;28;45346;-68
2023/09/05 00:46:54;;;;;;;;;6.25;6.25;;;;;27.41;36.97;101005.66;5080365;28;45525;-68
2023/09/05 00:49:28;;;;;;;;;4.25;4.25;;;;;27.38;37.02;101000.47;5080570;27;47259;-68
2023/09/05 00:51:58;;;;;;;;;5.25;5.25;;;;;27.34;37.20;100999.00;5080354;27;45311;-68
2023/09/05 00:54:24;;;;;;;;;9.00;6.25;;;;;27.31;36.98;100996.53;5084647;27;45533;-68
2023/09/05 00:56:51;;;;;;;;;6.75;6.00;;;;;27.32;36.91;101006.34;5078890;28;45861;-68
2023/09/05 00:59:17;;;;;;;;;8.00;6.00;;;;;27.29;37.02;101010.16;5080135;27;45389;-68
2023/09/05 01:01:42;;;;;;;;;7.50;7.50;;;;;27.26;36.49;101005.03;5080281;28;45338;-68
2023/09/05 01:04:08;;;;;;;;;4.75;4.75;;;;;27.24;36.76;101012.38;5080763;27;45445;-68
2023/09/05 01:06:46;;;;;;;;;7.00;7.00;;;;;27.22;37.29;101004.41;5079366;28;45560;-68
2023/09/05 01:09:38;;;;;;;;;5.75;5.75;;;;;27.18;36.69;101007.47;5080478;28;45349;-68
2023/09/05 01:12:05;;;;;;;;;7.75;6.25;;;;;27.13;37.00;100999.78;5070136;27;45321;-69
2023/09/05 01:14:31;;;;;;;;;7.00;7.00;;;;;27.13;36.90;101004.28;5080368;27;45250;-68
2023/09/05 01:17:01;;;;;;;;;5.50;5.50;;;;;27.08;36.92;100997.44;5080000;27;45321;-68
2023/09/05 01:19:28;;;;;;;;;4.75;4.75;;;;;27.05;36.96;100997.66;5080198;27;46260;-69
2023/09/05 01:22:15;;;;;;;;;6.00;6.00;;;;;27.05;37.27;100991.44;5080223;28;45239;-69
2023/09/05 01:24:41;;;;;;;;;7.00;6.25;;;;;27.03;37.30;100998.78;5095749;27;45316;-68
2023/09/05 01:27:08;;;;;;;;;7.50;7.50;;;;;27.01;37.21;101000.75;5079880;27;45441;-68
2023/09/05 01:29:39;;;;;;;;;5.00;5.00;;;;;26.97;37.21;100991.16;5079800;28;45520;-68
2023/09/05 01:32:08;;;;;;;;;7.75;7.75;;;;;26.92;37.03;100996.94;5079981;28;45316;-68
2023/09/05 01:34:33;;;;;;;;;5.50;5.50;;;;;26.87;37.63;101002.69;5078811;28;45422;-68
2023/09/05 01:36:58;;;;;;;;;7.00;5.00;;;;;26.86;37.12;101003.66;5079908;27;45303;-68
2023/09/05 01:39:24;;;;;;;;;5.50;3.00;;;;;26.84;37.73;101008.34;5079959;27;45449;-68
2023/09/05 01:41:50;;;;;;;;;6.50;6.25;;;;;26.82;36.97;100996.81;5079847;27;45433;-68
2023/09/05 01:44:15;;;;;;;;;7.50;7.00;;;;;26.78;37.84;101000.75;5081905;27;45248;-68
2023/09/05 01:46:40;;;;;;;;;7.00;6.00;;;;;26.75;37.61;100998.28;5083387;27;45586;-68
2023/09/05 01:49:06;;;;;;;;;5.75;5.75;;;;;26.72;37.51;100991.25;5083306;28;46249;-68
2023/09/05 01:51:31;;;;;;;;;6.25;6.25;;;;;26.70;37.84;100995.06;5083655;27;45598;-68
2023/09/05 01:53:57;;;;;;;;;6.75;6.75;;;;;26.66;37.37;100994.44;5116339;27;45298;-68
2023/09/05 01:56:22;;;;;;;;;9.00;6.25;;;;;26.65;37.12;100994.56;5083422;27;45415;-68
2023/09/05 01:58:47;;;;;;;;;9.00;6.50;;;;;26.62;37.12;100987.56;5098955;27;48034;-68
2023/09/05 02:01:13;;;;;;;;;7.00;7.00;;;;;26.59;37.75;100991.38;5083274;28;48905;-68
2023/09/05 02:03:39;;;;;;;;;9.00;7.00;;;;;26.51;37.45;100977.63;5083037;28;48517;-68
2023/09/05 02:06:04;;;;;;;;;7.75;6.00;;;;;26.53;37.34;100983.75;5083090;27;45460;-68
2023/09/05 02:08:29;;;;;;;;;8.25;8.25;;;;;26.35;37.19;100955.56;5081594;28;48234;-68
2023/09/05 02:10:55;;;;;;;;;6.50;6.50;;;;;26.48;37.49;100972.50;5082980;27;45259;-68
2023/09/05 02:13:20;;;;;;;;;7.50;6.25;;;;;26.43;37.18;100969.28;5082892;27;45243;-68
2023/09/05 02:15:46;;;;;;;;;5.50;5.50;;;;;26.42;38.00;100972.97;5083145;27;45319;-68
2023/09/05 02:18:11;;;;;;;;;7.50;6.00;;;;;26.40;37.51;100969.53;5082800;27;46148;-68
2023/09/05 02:20:37;;;;;;;;;6.75;6.75;;;;;26.35;37.90;100974.41;5083288;27;45213;-68
2023/09/05 02:23:03;;;;;;;;;6.75;5.75;;;;;26.34;37.60;100970.00;5083090;27;45220;-68
2023/09/05 02:25:28;;;;;;;;;6.00;5.25;;;;;26.31;37.59;100964.84;5080964;28;45648;-68
2023/09/05 02:27:54;;;;;;;;;7.25;7.25;;;;;26.28;38.06;100963.25;5082500;27;46258;-68
2023/09/05 02:30:19;;;;;;;;;6.50;6.50;;;;;26.22;38.19;100964.56;5082821;28;45306;-68
2023/09/05 02:32:49;;;;;;;;;7.00;6.00;;;;;26.22;37.67;100982.59;5081484;28;45295;-68
2023/09/05 02:35:15;;;;;;;;;8.00;6.00;;;;;26.17;38.19;100977.53;5082943;27;45169;-68
2023/09/05 02:37:40;;;;;;;;;6.25;6.25;;;;;26.12;37.90;100974.34;5098266;27;46926;-68
2023/09/05 02:40:07;;;;;;;;;9.50;7.50;;;;;26.09;37.82;100972.75;5082581;27;45357;-68
2023/09/05 02:42:32;;;;;;;;;8.00;6.50;;;;;26.08;38.41;100973.72;5082425;27;45325;-68
2023/09/05 02:44:58;;;;;;;;;7.25;7.25;;;;;26.06;37.71;100972.13;5082502;27;45235;-68
2023/09/05 02:47:23;;;;;;;;;8.00;7.00;;;;;26.00;38.59;100967.16;5082075;28;56178;-68
2023/09/05 02:49:48;;;;;;;;;6.50;6.50;;;;;25.98;37.88;100979.91;5115599;27;45303;-68
2023/09/05 02:52:14;;;;;;;;;5.25;5.25;;;;;25.94;38.13;100976.59;5082509;27;45268;-68
2023/09/05 02:54:39;;;;;;;;;8.00;7.00;;;;;25.91;38.46;100980.38;5082062;27;45531;-68
2023/09/05 02:57:05;;;;;;;;;5.75;4.75;;;;;25.88;38.14;100974.34;5082027;28;46424;-68
2023/09/05 02:59:30;;;;;;;;;8.75;7.00;;;;;25.87;38.69;100973.47;5082256;27;45425;-68
2023/09/05 03:01:55;;;;;;;;;7.75;7.25;;;;;25.84;38.71;100979.09;5082491;27;45442;-68
2023/09/05 03:04:20;;;;;;;;;6.25;5.75;;;;;25.82;38.26;100980.19;5082348;27;45315;-68
2023/09/05 03:06:46;;;;;;;;;9.00;8.50;;;;;25.79;38.59;100974.06;5080831;28;46311;-68
2023/09/05 03:09:12;;;;;;;;;6.50;6.00;;;;;25.77;38.05;100977.84;5082329;28;45385;-68
2023/09/05 03:11:38;;;;;;;;;7.00;6.25;;;;;25.74;38.21;100978.09;5082081;27;45303;-68
2023/09/05 03:14:04;;;;;;;;;5.25;4.75;;;;;25.72;38.15;100975.50;5082150;27;45229;-68
2023/09/05 03:16:29;;;;;;;;;6.00;6.00;;;;;25.68;38.40;100970.47;5082054;27;45239;-68
2023/09/05 03:18:59;;;;;;;;;7.50;7.00;;;;;25.68;38.62;100968.63;5082222;27;45243;-68
2023/09/05 03:21:28;;;;;;;;;7.75;7.50;;;;;25.66;38.54;100970.59;5082398;27;45289;-68
2023/09/05 03:23:53;;;;;;;;;5.25;5.25;;;;;25.63;38.68;100962.72;5081953;27;45224;-68
2023/09/05 03:26:19;;;;;;;;;8.00;8.00;;;;;25.63;38.83;100954.66;5081296;28;50497;-68
2023/09/05 03:28:46;;;;;;;;;7.00;7.00;;;;;25.58;38.60;100960.38;5081860;27;45312;-68
2023/09/05 03:31:11;;;;;;;;;5.50;5.50;;;;;25.57;38.78;100963.19;5082040;27;45334;-68
2023/09/05 03:33:37;;;;;;;;;9.25;7.50;;;;;25.56;38.88;100959.66;5081812;28;45170;-68
2023/09/05 03:36:03;;;;;;;;;5.50;5.50;;;;;25.52;38.49;100955.47;5081673;27;46152;-68
2023/09/05 03:38:29;;;;;;;;;6.00;6.00;;;;;25.51;38.91;100956.44;5081760;27;45429;-68
2023/09/05 03:40:55;;;;;;;;;5.50;5.50;;;;;25.51;38.71;100960.94;5081591;27;45296;-68
2023/09/05 03:43:20;;;;;;;;;6.00;6.00;;;;;25.50;38.51;100961.91;5081283;27;45455;-68
2023/09/05 03:45:49;;;;;;;;;8.25;8.25;;;;;25.46;38.44;100955.94;5114334;27;46661;-68
2023/09/05 03:48:14;;;;;;;;;7.00;6.75;;;;;25.45;38.59;100954.19;5081553;27;45177;-68
2023/09/05 03:50:40;;;;;;;;;8.50;7.50;;;;;25.43;38.52;100948.06;5114497;27;45258;-68
2023/09/05 03:53:06;;;;;;;;;9.00;7.50;;;;;25.41;39.13;100942.81;5081505;28;45248;-68
2023/09/05 03:55:34;;;;;;;;;8.75;8.00;;;;;25.38;38.97;100936.78;5081093;27;46031;-68
2023/09/05 03:58:04;;;;;;;;;6.25;6.00;;;;;25.38;39.32;100940.31;5081331;27;45413;-68
2023/09/05 04:00:32;;;;;;;;;6.25;6.25;;;;;25.36;39.29;100933.31;5081649;28;45388;-68
2023/09/05 04:02:57;;;;;;;;;7.50;7.50;;;;;25.34;39.24;100932.59;5081445;27;45282;-68
2023/09/05 04:05:24;;;;;;;;;18.00;18.00;;;;;25.33;39.37;100929.03;5079319;28;45859;-68
2023/09/05 04:07:49;;;;;;;;;7.75;6.50;;;;;25.30;38.93;100935.47;5080643;27;45440;-67
2023/09/05 04:10:14;;;;;;;;;5.75;5.75;;;;;25.28;39.18;100944.63;5081144;27;45468;-67
2023/09/05 04:12:40;;;;;;;;;9.75;8.25;;;;;25.25;39.18;100940.34;5114160;27;45443;-67
2023/09/05 04:15:06;;;;;;;;;8.25;8.00;;;;;25.25;38.88;100939.50;5080941;28;45349;-67
2023/09/05 04:17:31;;;;;;;;;5.75;5.75;;;;;25.24;39.28;100943.16;5081263;27;45407;-67
2023/09/05 04:19:56;;;;;;;;;6.50;5.50;;;;;25.18;39.04;100931.00;5081296;27;45519;-68
2023/09/05 04:22:23;;;;;;;;;8.50;7.50;;;;;25.18;39.06;100922.09;5081181;27;45366;-68
2023/09/05 04:24:54;;;;;;;;;5.75;5.75;;;;;25.15;39.27;100917.78;5080587;28;46366;-68
2023/09/05 04:27:21;;;;;;;;;5.25;5.00;;;;;25.15;39.11;100933.94;5113202;27;45373;-68
2023/09/05 04:29:51;;;;;;;;;9.25;7.75;;;;;25.11;39.42;100925.22;5080912;27;45315;-68
2023/09/05 04:32:26;;;;;;;;;8.00;8.00;;;;;25.10;38.99;100944.16;5080831;28;45220;-68
2023/09/05 04:34:54;;;;;;;;;8.25;6.00;;;;;25.09;39.09;100951.38;5067828;28;45616;-67
2023/09/05 04:37:20;;;;;;;;;9.00;8.25;;;;;25.04;39.84;100953.50;5080708;27;45345;-68
2023/09/05 04:39:45;;;;;;;;;10.00;8.00;;;;;25.05;39.33;100967.84;5081099;27;45636;-67
2023/09/05 04:42:10;;;;;;;;;8.75;6.50;;;;;24.99;39.53;100967.31;5080084;28;51252;-67
2023/09/05 04:44:36;;;;;;;;;7.00;7.00;;;;;24.98;39.51;100965.59;5080922;27;46103;-67
2023/09/05 04:47:23;;;;;;;;;7.00;6.50;;;;;24.98;39.63;100970.06;5078947;28;51322;-68
2023/09/05 04:49:49;;;;;;;;;8.25;8.25;;;;;24.96;39.65;100972.03;5079664;28;45232;-68
2023/09/05 04:52:16;;;;;;;;;4.75;4.75;;;;;24.94;39.49;100977.53;5080457;28;45256;-68
2023/09/05 04:54:41;;;;;;;;;9.25;6.75;;;;;24.93;39.49;100983.88;5080432;27;46203;-68
2023/09/05 04:57:07;;;;;;;;;8.00;6.25;;;;;24.90;39.86;100984.06;5079929;27;45215;-68
2023/09/05 04:59:32;;;;;;;;;7.00;6.25;;;;;24.89;39.69;100989.56;5080853;27;45392;-68
2023/09/05 05:01:57;;;;;;;;;8.50;7.75;;;;;24.88;39.59;100988.72;5079000;28;46212;-68
2023/09/05 05:04:22;;;;;;;;;7.50;7.50;;;;;24.84;39.62;100997.94;5080668;27;45215;-68
2023/09/05 05:06:48;;;;;;;;;9.50;9.50;;;;;24.83;39.74;100993.56;5080434;27;45239;-68
2023/09/05 05:09:13;;;;;;;;;6.25;6.25;;;;;24.82;39.71;101002.56;5113576;27;45196;-68
2023/09/05 05:11:39;;;;;;;;;8.25;7.00;;;;;24.78;39.76;101003.75;5079033;28;45524;-68
2023/09/05 05:14:04;;;;;;;;;5.00;5.00;;;;;24.76;40.04;101009.22;5078746;27;46900;-68
2023/09/05 05:16:29;;;;;;;;;6.00;6.00;;;;;24.74;39.55;101004.94;5080381;27;45237;-68
2023/09/05 05:18:55;;;;;;;;;15.75;14.75;;;;;24.74;40.15;101010.31;5080207;27;45236;-68
2023/09/05 05:21:20;;;;;;;;;7.25;7.25;;;;;24.71;39.70;101007.84;5080070;27;45417;-68
2023/09/05 05:23:45;;;;;;;;;6.25;5.50;;;;;24.71;39.99;101005.16;5079750;27;48332;-68
2023/09/05 05:26:10;;;;;;;;;7.00;6.00;;;;;24.70;39.86;101008.81;5079421;27;45305;-68
2023/09/05 05:28:36;;;;;;;;;7.50;7.50;;;;;24.69;39.72;101007.97;5080191;27;45256;-67
2023/09/05 05:31:01;;;;;;;;;14.00;13.00;;;;;24.67;39.97;101020.63;5079819;27;45383;-67
2023/09/05 05:33:27;;;;;;;;;8.50;6.25;;;;;24.66;40.46;101018.91;5080012;28;47385;-69
2023/09/05 05:35:55;;;;;;;;;7.50;7.00;;;;;24.64;39.91;101024.38;5078353;28;45409;-69
2023/09/05 05:38:21;;;;;;;;;9.00;9.00;;;;;24.61;40.06;101021.88;5080099;27;45406;-71
2023/09/05 05:40:47;;;;;;;;;7.00;7.00;;;;;24.60;40.22;101020.16;5079633;27;45462;-71
2023/09/05 05:43:12;;;;;;;;;6.00;6.00;;;;;24.59;40.12;101020.25;5079616;27;45392;-70
2023/09/05 05:45:37;;;;;;;;;9.25;6.75;;;;;24.56;40.09;101024.00;5112241;27;48940;-71
2023/09/05 05:48:03;;;;;;;;;7.75;7.75;;;;;24.54;40.42;101014.34;5080009;27;45306;-69
2023/09/05 05:50:28;;;;;;;;;7.75;6.00;;;;;24.55;40.10;101019.59;5095410;27;45663;-71
2023/09/05 05:52:54;;;;;;;;;9.50;9.00;;;;;24.51;40.29;101020.78;5079710;27;45433;-71
2023/09/05 05:55:19;;;;;;;;;8.75;8.00;;;;;24.54;40.25;101009.84;5079409;27;45455;-71
2023/09/05 05:57:44;;;;;;;;;7.50;7.00;;;;;24.54;40.22;101015.22;5079986;27;45407;-70
2023/09/05 06:00:10;;;;;;;;;7.25;7.25;;;;;24.54;40.27;101014.34;5079281;27;54132;-71
2023/09/05 06:02:35;;;;;;;;;8.00;8.00;;;;;24.55;40.11;101016.91;5079766;27;46109;-69
2023/09/05 06:05:00;;;;;;;;;7.75;7.75;;;;;24.55;40.35;101022.28;5078976;28;55043;-69
2023/09/05 06:07:26;;;;;;;;;7.00;7.00;;;;;24.55;40.04;101014.22;5079963;27;45353;-69
2023/09/05 06:09:51;;;;;;;;;9.00;7.75;;;;;24.56;40.36;101015.94;5086878;27;45382;-67
2023/09/05 06:12:16;;;;;;;;;7.25;7.25;;;;;24.55;40.38;101014.22;5071209;28;51261;-71
2023/09/05 06:14:42;;;;;;;;;14.75;14.00;;;;;24.56;40.49;101026.69;5069518;27;45410;-68
2023/09/05 06:17:07;;;;;;;;;7.75;7.75;;;;;24.54;40.03;101012.53;5071800;27;45324;-68
2023/09/05 06:19:32;;;;;;;;;7.50;7.50;;;;;24.54;40.34;101020.59;5076182;28;45390;-69
2023/09/05 06:21:58;;;;;;;;;8.75;8.00;;;;;24.56;40.30;101029.38;5077621;28;46945;-69
2023/09/05 06:24:24;;;;;;;;;8.75;6.75;;;;;24.55;40.26;101024.97;5111921;27;45469;-62
2023/09/05 06:26:50;;;;;;;;;8.25;7.25;;;;;24.57;40.46;101024.91;5079641;28;45322;-61
2023/09/05 06:29:15;;;;;;;;;5.50;5.50;;;;;24.57;40.58;101031.13;5079286;27;45162;-61
2023/09/05 06:31:40;;;;;;;;;10.50;8.50;;;;;24.57;40.60;101036.47;5082024;27;45300;-61
2023/09/05 06:34:06;;;;;;;;;9.50;9.00;;;;;24.58;40.59;101042.69;5081885;28;45485;-61
2023/09/05 06:36:31;;;;;;;;;9.25;7.75;;;;;24.56;40.52;101040.13;5082685;27;45497;-61
2023/09/05 06:38:56;;;;;;;;;10.00;8.50;;;;;24.57;40.60;101052.59;5082387;27;45356;-61
2023/09/05 06:41:22;;;;;;;;;9.00;7.75;;;;;24.58;40.79;101042.69;5082466;27;45336;-60
2023/09/05 06:43:47;;;;;;;;;11.00;9.00;;;;;24.59;40.62;101042.63;5081914;27;45222;-60
2023/09/05 06:46:13;;;;;;;;;9.75;7.25;;;;;24.59;40.67;101039.06;5082273;28;50815;-61
2023/09/05 06:48:39;;;;;;;;;8.00;7.00;;;;;24.58;40.73;101035.53;5074635;27;45596;-60
2023/09/05 06:51:05;;;;;;;;;8.00;7.00;;;;;24.56;40.76;101039.28;5082073;27;45546;-61
2023/09/05 06:53:31;;;;;;;;;8.75;6.75;;;;;24.57;41.03;101047.22;5067157;27;45442;-62
2023/09/05 06:55:57;;;;;;;;;9.25;7.50;;;;;24.54;40.59;101025.97;5079619;28;45469;-62
2023/09/05 06:58:24;;;;;;;;;8.75;6.75;;;;;24.54;40.80;101034.03;5081636;27;45564;-62
2023/09/05 07:00:53;;;;;;;;;9.00;8.00;;;;;24.55;40.90;101032.19;5077074;27;45556;-61
2023/09/05 07:03:23;;;;;;;;;7.25;7.25;;;;;24.55;40.94;101029.50;5081866;27;45500;-61
2023/09/05 07:05:49;;;;;;;;;9.75;7.50;;;;;24.54;41.32;101034.03;5081798;27;45213;-61
2023/09/05 07:08:14;;;;;;;;;10.75;7.75;;;;;24.53;41.07;101034.97;5081840;27;45374;-61
2023/09/05 07:10:40;;;;;;;;;11.00;8.25;;;;;24.56;41.34;101050.88;5080761;27;46233;-61
2023/09/05 07:13:05;;;;;;;;;9.25;8.50;;;;;24.54;41.26;101044.78;5081434;27;47638;-61
2023/09/05 07:15:30;;;;;;;;;8.25;7.50;;;;;24.55;41.24;101054.53;5081987;28;45313;-61
2023/09/05 07:17:55;;;;;;;;;9.25;7.25;;;;;24.59;41.02;101049.81;5077075;27;48683;-62
2023/09/05 07:20:21;;;;;;;;;11.75;9.00;;;;;24.62;41.04;101052.28;5077992;28;47316;-61
2023/09/05 07:22:46;;;;;;;;;9.25;9.25;;;;;24.62;40.97;101046.91;5081538;27;45296;-62
2023/09/05 07:25:11;;;;;;;;;18.00;13.25;;;;;24.65;40.90;101055.66;5081186;28;46097;-62
2023/09/05 07:27:37;;;;;;;;;9.50;7.75;;;;;24.60;41.07;101046.16;5079317;27;45528;-62
2023/09/05 07:30:02;;;;;;;;;10.00;9.50;;;;;24.68;41.45;101057.28;5079738;28;55135;-61
2023/09/05 07:32:27;;;;;;;;;9.75;9.50;;;;;24.66;41.36;101045.78;5069576;27;45242;-62
2023/09/05 07:34:53;;;;;;;;;7.50;6.00;;;;;24.72;41.51;101055.25;5081500;27;45284;-62
2023/09/05 07:37:18;;;;;;;;;9.00;8.00;;;;;24.73;41.39;101051.56;5081006;28;45270;-61
2023/09/05 07:39:47;;;;;;;;;8.00;8.00;;;;;24.73;41.35;101055.13;5081078;28;46992;-61
2023/09/05 07:42:12;;;;;;;;;8.00;8.00;;;;;24.75;41.57;101052.34;5079557;27;45372;-61
2023/09/05 07:44:37;;;;;;;;;7.25;7.00;;;;;24.77;41.36;101051.25;5081611;27;45363;-61
2023/09/05 07:47:03;;;;;;;;;8.75;8.00;;;;;24.75;41.42;101049.66;5080420;27;45359;-62
2023/09/05 07:49:31;;;;;;;;;6.50;5.75;;;;;24.82;41.78;101049.09;5074007;28;46264;-61
2023/09/05 07:51:57;;;;;;;;;7.75;6.50;;;;;24.84;41.73;101046.31;5080270;27;45251;-62
2023/09/05 07:54:25;;;;;;;;;8.00;8.00;;;;;24.87;41.86;101056.84;5081438;27;45285;-62
2023/09/05 07:56:51;;;;;;;;;8.00;8.00;;;;;24.88;41.34;101053.22;5080636;27;45411;-62
2023/09/05 07:59:16;;;;;;;;;10.75;9.00;;;;;24.93;41.35;101052.88;5080904;27;46407;-64
2023/09/05 08:01:41;;;;;;;;;7.50;7.00;;;;;24.94;41.56;101051.91;5078641;27;54937;-62
2023/09/05 08:04:07;;;;;;;;;4.00;4.00;;;;;24.98;41.72;101048.91;5081444;27;45469;-62
2023/09/05 08:06:32;;;;;;;;;8.00;7.25;;;;;25.01;42.08;101055.03;5080677;28;55223;-64
2023/09/05 08:08:58;;;;;;;;;9.75;8.25;;;;;25.06;41.52;101060.94;5080627;27;46069;-62
2023/09/05 08:11:23;;;;;;;;;7.75;6.25;;;;;25.08;41.53;101056.31;5080627;27;45685;-62
2023/09/05 08:13:49;;;;;;;;;6.75;6.75;;;;;25.13;41.95;101064.91;5080772;27;45306;-62
2023/09/05 08:16:15;;;;;;;;;7.75;7.75;;;;;25.14;41.72;101067.50;5080666;28;45332;-62
2023/09/05 08:18:41;;;;;;;;;8.00;7.25;;;;;25.18;42.03;101061.91;5076261;27;45442;-61
2023/09/05 08:21:07;;;;;;;;;6.00;6.00;;;;;25.19;41.63;101056.41;5077843;27;45221;-63
2023/09/05 08:23:32;;;;;;;;;9.25;8.25;;;;;25.30;41.62;101064.56;5080868;27;45173;-62
2023/09/05 08:25:58;;;;;;;;;8.50;7.25;;;;;25.32;41.75;101059.09;5073818;27;50333;-62
2023/09/05 08:28:26;;;;;;;;;11.50;8.50;;;;;25.38;41.63;101055.13;5080249;28;46239;-62
2023/09/05 08:30:59;;;;;;;;;9.50;9.50;;;;;25.45;42.13;101067.19;5067691;28;45335;-62
2023/09/05 08:33:24;;;;;;;;;8.00;7.00;;;;;25.51;41.48;101064.03;5052936;28;45526;-62
2023/09/05 08:35:49;;;;;;;;;8.00;7.25;;;;;25.57;42.40;101058.22;5045539;28;45517;-62
2023/09/05 08:38:15;;;;;;;;;7.00;6.00;;;;;25.63;41.73;101059.59;5061918;28;45367;-62
2023/09/05 08:40:45;;;;;;;;;8.75;8.25;;;;;25.67;41.89;101052.16;5063916;28;45424;-62
2023/09/05 08:43:10;;;;;;;;;9.00;9.00;;;;;25.75;42.22;101058.69;5060065;28;45392;-62
2023/09/05 08:45:37;;;;;;;;;8.75;8.25;;;;;25.81;42.39;101054.72;5067945;28;45285;-61
2023/09/05 08:48:03;;;;;;;;;10.75;9.25;;;;;25.87;42.28;101059.59;5061262;28;46226;-62
2023/09/05 08:50:30;;;;;;;;;10.50;8.75;;;;;25.95;41.50;101067.97;5056071;28;45399;-62
2023/09/05 08:52:58;;;;;;;;;10.25;8.75;;;;;26.00;41.81;101073.03;5063151;28;45269;-61
2023/09/05 08:55:24;;;;;;;;;9.25;7.50;;;;;26.07;42.09;101070.78;5058789;27;45485;-62
2023/09/05 08:57:53;;;;;;;;;7.00;7.00;;;;;26.16;42.36;101080.00;5063415;28;45387;-62
2023/09/05 09:00:18;;;;;;;;;8.75;8.75;;;;;26.24;42.22;101080.28;5055988;28;45521;-62
2023/09/05 09:02:44;;;;;;;;;8.00;8.00;;;;;26.27;41.61;101067.41;5064915;28;45837;-62
2023/09/05 09:05:09;;;;;;;;;9.25;7.75;;;;;26.39;42.40;101075.53;5067444;28;45416;-62
2023/09/05 09:07:35;;;;;;;;;11.00;10.00;;;;;26.48;42.13;101066.78;5064297;28;45321;-62
2023/09/05 09:10:16;;;;;;;;;8.50;8.00;;;;;26.58;41.92;101088.50;5066547;28;45319;-62
2023/09/05 09:12:41;;;;;;;;;9.25;8.25;;;;;26.67;41.69;101089.63;5065864;28;45484;-62
2023/09/05 09:15:14;;;;;;;;;7.25;7.25;;;;;26.75;42.37;101081.81;5063698;28;50011;-62
2023/09/05 09:17:46;;;;;;;;;7.25;7.25;;;;;26.80;42.19;101070.69;5066486;28;47079;-62
2023/09/05 09:20:12;;;;;;;;;12.75;10.50;;;;;26.90;42.40;101080.63;5054733;28;45281;-62
2023/09/05 09:22:39;;;;;;;;;11.25;9.25;;;;;27.00;42.13;101074.53;5066666;28;45418;-62
2023/09/05 09:25:10;;;;;;;;;9.00;9.00;;;;;27.08;42.06;101075.63;5070553;28;45363;-62
2023/09/05 09:27:36;;;;;;;;;9.75;9.00;;;;;27.16;41.94;101069.63;5079202;27;45374;-62
2023/09/05 09:30:06;;;;;;;;;10.75;10.00;;;;;27.24;42.15;101072.59;5079570;27;45395;-62
2023/09/05 09:32:32;;;;;;;;;12.75;10.50;;;;;27.37;42.13;101075.16;5070942;28;45374;-61
2023/09/05 09:34:58;;;;;;;;;10.50;9.00;;;;;27.45;41.97;101076.41;5079512;27;45492;-61
2023/09/05 09:37:25;;;;;;;;;8.50;8.50;;;;;27.60;41.81;101077.88;5094806;27;48588;-62
2023/09/05 09:39:56;;;;;;;;;11.50;9.25;;;;;27.70;42.06;101077.97;5079459;28;45278;-62
2023/09/05 09:42:23;;;;;;;;;12.00;9.00;;;;;27.84;42.33;101077.69;5079067;28;45599;-63
2023/09/05 09:44:50;;;;;;;;;14.25;11.75;;;;;28.01;42.15;101083.53;5079426;27;45232;-61
2023/09/05 09:47:17;;;;;;;;;10.00;8.00;;;;;28.15;41.89;101080.59;5079026;28;46325;-62
2023/09/05 09:49:46;;;;;;;;;10.25;9.00;;;;;28.30;42.17;101072.16;5071817;28;45333;-62
2023/09/05 09:52:17;;;;;;;;;6.25;6.25;;;;;28.49;42.14;101083.16;5079205;27;45412;-62
2023/09/05 09:54:46;;;;;;;;;10.25;10.25;;;;;28.65;42.03;101077.28;5078896;28;45615;-62
2023/09/05 09:57:20;;;;;;;;;8.00;8.00;;;;;28.82;41.88;101070.44;5077102;27;46051;-61
2023/09/05 09:59:50;;;;;;;;;9.50;9.50;;;;;29.02;41.74;101065.16;5075753;27;45375;-61
2023/09/05 10:02:16;;;;;;;;;11.00;9.50;;;;;29.18;41.66;101065.50;5079247;28;45413;-61
2023/09/05 10:04:43;;;;;;;;;9.50;9.50;;;;;29.35;41.60;101066.75;5075334;27;45512;-61
2023/09/05 10:07:14;;;;;;;;;9.50;9.50;;;;;29.49;41.20;101064.66;5082782;27;46253;-61
2023/09/05 10:09:43;;;;;;;;;7.75;7.75;;;;;29.66;41.64;101069.41;5082518;28;45425;-61
2023/09/05 10:12:09;;;;;;;;;9.25;7.50;;;;;29.82;41.18;101062.59;5082803;28;45583;-62
2023/09/05 10:14:37;;;;;;;;;10.00;8.25;;;;;29.97;41.08;101060.38;5082319;28;45334;-62
2023/09/05 10:17:04;;;;;;;;;9.75;9.75;;;;;30.12;41.15;101058.09;5082475;27;46576;-62
2023/09/05 10:19:30;;;;;;;;;7.00;7.00;;;;;30.28;41.26;101061.09;5075233;28;45468;-62
2023/09/05 10:21:57;;;;;;;;;5.75;5.75;;;;;30.44;40.80;101060.50;5082649;27;45328;-62
2023/09/05 10:24:25;;;;;;;;;9.25;6.00;;;;;30.61;41.29;101060.81;5082253;27;45382;-62
2023/09/05 10:26:50;;;;;;;;;10.00;8.50;;;;;30.78;40.79;101056.47;5082192;27;46330;-61
2023/09/05 10:29:43;;;;;;;;;8.50;8.00;;;;;30.92;40.72;101055.19;5082296;27;45230;-62
2023/09/05 10:32:13;;;;;;;;;7.75;7.75;;;;;31.16;40.41;101057.41;5063338;28;45319;-62
2023/09/05 10:34:50;;;;;;;;;10.00;10.00;;;;;31.38;40.08;101050.72;5080948;28;45371;-62
2023/09/05 10:37:19;;;;;;;;;9.50;7.25;;;;;31.58;40.27;101045.19;5082109;27;46479;-62
2023/09/05 10:39:56;;;;;;;;;9.00;9.00;;;;;31.82;40.39;101049.22;5082415;28;45313;-62
2023/09/05 10:42:31;;;;;;;;;10.75;10.75;;;;;32.04;40.26;101046.03;5082261;27;45307;-62
2023/09/05 10:44:58;;;;;;;;;9.00;6.25;;;;;32.24;39.42;101040.47;5082527;27;45295;-62
2023/09/05 10:47:29;;;;;;;;;9.75;8.00;;;;;32.47;39.42;101040.81;5082153;27;45604;-62
2023/09/05 10:50:04;;;;;;;;;8.00;8.00;;;;;32.70;39.08;101040.28;5073219;28;45463;-62
2023/09/05 10:52:30;;;;;;;;;7.00;7.00;;;;;32.91;39.14;101037.22;5081692;27;45334;-62
2023/09/05 10:54:56;;;;;;;;;11.00;9.50;;;;;33.10;38.93;101038.84;5078040;27;45536;-62
2023/09/05 10:57:42;;;;;;;;;7.00;7.00;;;;;33.32;38.67;101029.28;5075091;28;47201;-62
2023/09/05 11:00:29;;;;;;;;;8.00;8.00;;;;;33.55;38.94;101039.56;5074359;28;45506;-63
2023/09/05 11:03:09;;;;;;;;;8.00;7.25;;;;;33.73;38.66;101030.44;5081767;27;45403;-63
2023/09/05 11:05:35;;;;;;;;;7.25;6.25;;;;;33.98;38.17;101048.53;5078584;27;45303;-62
2023/09/05 11:08:01;;;;;;;;;8.25;8.25;;;;;34.15;38.06;101041.22;5078269;27;46310;-62
2023/09/05 11:10:39;;;;;;;;;8.00;8.00;;;;;34.42;37.78;101043.81;5075733;27;45309;-62
2023/09/05 11:13:13;;;;;;;;;9.00;9.00;;;;;34.66;37.63;101046.50;5081649;27;45394;-61
2023/09/05 11:15:43;;;;;;;;;9.50;7.25;;;;;34.88;37.31;101041.38;5081252;27;45507;-62
2023/09/05 11:18:11;;;;;;;;;3.75;3.75;;;;;35.09;37.25;101046.25;5080477;28;47318;-62
2023/09/05 11:20:39;;;;;;;;;5.75;5.75;;;;;35.33;36.66;101038.13;5081875;27;45284;-62
2023/09/05 11:23:18;;;;;;;;;7.75;6.75;;;;;35.53;36.26;101038.56;5078142;27;45561;-62